Time;durP1;ratioP1;P1;durP2;ratioP2;P2;SDS_P1;SDS_P2;PMS_P1;PMS_P2;Temp;Humidity;BMP_temperature;BMP_pressure;BME280_temperature;BME280_humidity;BME280_pressure;Samples;Min_cycle;Max_cycle;Signal;HPM_P1;HPM_P2
2022/10/23 00:02:25;;;;;;;30.70;21.50;;;;;;;;;;5075194;28;20437;-66
2022/10/23 00:04:52;;;;;;;31.87;21.93;;;;;;;;;;5074828;28;20503;-66
2022/10/23 00:07:19;;;;;;;27.23;22.03;;;;;;;;;;5075035;28;20448;-66
2022/10/23 00:09:47;;;;;;;36.43;21.23;;;;;;;;;;5074765;28;21002;-66
2022/10/23 00:12:15;;;;;;;39.10;23.40;;;;;;;;;;5075131;28;20464;-66
2022/10/23 00:14:42;;;;;;;31.07;21.63;;;;;;;;;;5074709;28;20440;-66
2022/10/23 00:17:11;;;;;;;27.50;20.57;;;;;;;;;;5074505;28;20477;-66
2022/10/23 00:19:38;;;;;;;27.53;21.23;;;;;;;;;;5074552;28;20449;-66
2022/10/23 00:22:07;;;;;;;32.63;23.90;;;;;;;;;;5074476;28;20452;-66
2022/10/23 00:24:35;;;;;;;29.60;22.53;;;;;;;;;;5074496;28;20468;-66
2022/10/23 00:27:02;;;;;;;32.50;23.50;;;;;;;;;;5073980;28;20535;-65
2022/10/23 00:29:30;;;;;;;33.97;24.23;;;;;;;;;;5074448;28;20931;-66
2022/10/23 00:31:57;;;;;;;38.90;23.20;;;;;;;;;;5074570;28;20528;-66
2022/10/23 00:34:25;;;;;;;31.93;21.67;;;;;;;;;;5074756;28;20449;-66
2022/10/23 00:36:52;;;;;;;32.53;22.17;;;;;;;;;;5074033;28;20488;-66
2022/10/23 00:39:19;;;;;;;33.50;20.97;;;;;;;;;;5074639;28;20440;-66
2022/10/23 00:41:46;;;;;;;36.77;21.80;;;;;;;;;;5074070;28;20456;-66
2022/10/23 00:44:28;;;;;;;36.10;22.57;;;;;;;;;;5074152;28;20447;-66
2022/10/23 00:46:57;;;;;;;38.37;22.80;;;;;;;;;;5073847;28;20805;-66
2022/10/23 00:49:25;;;;;;;30.57;22.57;;;;;;;;;;5074275;28;20448;-65
2022/10/23 00:51:53;;;;;;;31.60;23.93;;;;;;;;;;5074466;28;20441;-67
2022/10/23 00:54:22;;;;;;;33.97;22.67;;;;;;;;;;5074257;28;20443;-66
2022/10/23 00:56:50;;;;;;;34.70;23.37;;;;;;;;;;5073761;28;20478;-67
2022/10/23 00:59:17;;;;;;;35.50;23.00;;;;;;;;;;5074263;28;20447;-66
2022/10/23 01:01:44;;;;;;;32.70;22.50;;;;;;;;;;5073861;28;20451;-67
2022/10/23 01:04:13;;;;;;;28.20;21.97;;;;;;;;;;5074071;28;20449;-66
2022/10/23 01:06:43;;;;;;;32.57;23.93;;;;;;;;;;5074317;28;20457;-65
2022/10/23 01:09:13;;;;;;;34.20;23.50;;;;;;;;;;5074304;28;20429;-65
2022/10/23 01:11:43;;;;;;;31.20;23.77;;;;;;;;;;5074767;28;20449;-66
2022/10/23 01:14:16;;;;;;;35.37;23.37;;;;;;;;;;5073631;28;20445;-67
2022/10/23 01:16:50;;;;;;;28.93;23.50;;;;;;;;;;5074187;28;20469;-65
2022/10/23 01:19:22;;;;;;;29.07;21.83;;;;;;;;;;5074054;28;20449;-66
2022/10/23 01:21:55;;;;;;;32.57;23.57;;;;;;;;;;5074144;28;20441;-65
2022/10/23 01:24:37;;;;;;;32.27;23.40;;;;;;;;;;5074151;28;20496;-66
2022/10/23 01:27:19;;;;;;;37.83;21.47;;;;;;;;;;5073740;28;20502;-66
2022/10/23 01:29:49;;;;;;;32.70;22.53;;;;;;;;;;5074025;28;20782;-65
2022/10/23 01:32:20;;;;;;;36.67;22.97;;;;;;;;;;5073299;28;20937;-67
2022/10/23 01:34:49;;;;;;;32.50;23.57;;;;;;;;;;5073510;28;20425;-65
2022/10/23 01:37:19;;;;;;;34.13;23.50;;;;;;;;;;5073475;28;20477;-66
2022/10/23 01:39:48;;;;;;;38.90;24.80;;;;;;;;;;5073396;28;20934;-66
2022/10/23 01:42:18;;;;;;;37.40;24.00;;;;;;;;;;5073172;28;20543;-65
2022/10/23 01:44:48;;;;;;;33.78;23.10;;;;;;;;;;5073689;28;20444;-66
2022/10/23 01:47:17;;;;;;;38.13;24.40;;;;;;;;;;5073969;28;20201;-65
2022/10/23 01:49:45;;;;;;;42.17;25.33;;;;;;;;;;5073191;28;20440;-65
2022/10/23 01:52:13;;;;;;;36.93;23.67;;;;;;;;;;5073367;28;20454;-65
2022/10/23 01:54:43;;;;;;;35.67;24.30;;;;;;;;;;5073434;28;20441;-65
2022/10/23 01:57:11;;;;;;;37.87;22.87;;;;;;;;;;5073270;28;20484;-66
2022/10/23 01:59:40;;;;;;;38.03;24.63;;;;;;;;;;5073598;28;20457;-65
2022/10/23 02:02:10;;;;;;;32.07;22.70;;;;;;;;;;5073293;28;20445;-66
2022/10/23 02:04:40;;;;;;;29.17;22.40;;;;;;;;;;5073229;28;20449;-65
2022/10/23 02:07:07;;;;;;;32.90;22.20;;;;;;;;;;5073264;28;20938;-66
2022/10/23 02:09:34;;;;;;;35.03;21.17;;;;;;;;;;5074009;28;20617;-65
2022/10/23 02:12:03;;;;;;;35.40;21.03;;;;;;;;;;5072944;28;20452;-66
2022/10/23 02:14:37;;;;;;;25.57;19.37;;;;;;;;;;5073309;28;20443;-65
2022/10/23 02:17:08;;;;;;;33.50;21.27;;;;;;;;;;5073389;28;20469;-66
2022/10/23 02:19:38;;;;;;;29.20;20.27;;;;;;;;;;5073654;28;20459;-66
2022/10/23 02:22:08;;;;;;;28.87;22.27;;;;;;;;;;5073595;28;20702;-66
2022/10/23 02:24:36;;;;;;;27.90;19.87;;;;;;;;;;5072648;28;20474;-65
2022/10/23 02:27:08;;;;;;;34.20;24.55;;;;;;;;;;5073070;28;20454;-66
2022/10/23 02:29:38;;;;;;;46.10;25.67;;;;;;;;;;5072848;28;20650;-65
2022/10/23 02:32:06;;;;;;;42.33;24.40;;;;;;;;;;5072974;28;20510;-67
2022/10/23 02:34:33;;;;;;;36.30;24.17;;;;;;;;;;5072235;28;20528;-65
2022/10/23 02:37:02;;;;;;;41.20;23.93;;;;;;;;;;5072782;28;20837;-65
2022/10/23 02:39:29;;;;;;;38.33;25.27;;;;;;;;;;5072987;28;20809;-65
2022/10/23 02:42:01;;;;;;;38.97;23.87;;;;;;;;;;5072934;28;20441;-65
2022/10/23 02:44:38;;;;;;;43.60;21.90;;;;;;;;;;5072993;28;20447;-65
2022/10/23 02:47:19;;;;;;;26.33;19.33;;;;;;;;;;5072729;28;20437;-67
2022/10/23 02:49:50;;;;;;;25.80;17.87;;;;;;;;;;5075350;28;20432;-65
2022/10/23 02:52:22;;;;;;;19.73;16.50;;;;;;;;;;5077384;28;20520;-66
2022/10/23 02:55:00;;;;;;;22.50;15.13;;;;;;;;;;5076265;28;20433;-66
2022/10/23 02:57:30;;;;;;;20.23;16.00;;;;;;;;;;5076466;28;20468;-67
2022/10/23 03:00:01;;;;;;;27.30;16.23;;;;;;;;;;5076955;28;20440;-66
2022/10/23 03:02:31;;;;;;;25.93;16.73;;;;;;;;;;5076561;28;20429;-67
2022/10/23 03:04:59;;;;;;;25.20;17.60;;;;;;;;;;5076297;28;20541;-66
2022/10/23 03:07:28;;;;;;;26.70;17.23;;;;;;;;;;5076921;28;20451;-66
2022/10/23 03:09:55;;;;;;;29.20;18.63;;;;;;;;;;5075960;28;20593;-66
2022/10/23 03:12:22;;;;;;;29.33;17.60;;;;;;;;;;5076210;28;20779;-66
2022/10/23 03:14:50;;;;;;;28.97;17.80;;;;;;;;;;5076168;28;20452;-66
2022/10/23 03:17:17;;;;;;;27.63;18.60;;;;;;;;;;5076340;28;20480;-66
2022/10/23 03:19:44;;;;;;;30.00;19.20;;;;;;;;;;5076031;28;20444;-67
2022/10/23 03:22:11;;;;;;;27.37;18.27;;;;;;;;;;5076037;28;20437;-66
2022/10/23 03:24:40;;;;;;;37.23;20.93;;;;;;;;;;5075944;28;20470;-65
2022/10/23 03:27:07;;;;;;;31.13;20.23;;;;;;;;;;5075664;28;20454;-66
2022/10/23 03:29:34;;;;;;;32.07;17.53;;;;;;;;;;5075611;28;20451;-66
2022/10/23 03:32:01;;;;;;;21.10;14.97;;;;;;;;;;5075970;28;20456;-66
2022/10/23 03:34:28;;;;;;;21.77;12.90;;;;;;;;;;5075777;28;20437;-66
2022/10/23 03:36:55;;;;;;;19.33;13.87;;;;;;;;;;5075322;28;20491;-65
2022/10/23 03:39:23;;;;;;;21.40;13.70;;;;;;;;;;5075351;28;20452;-66
2022/10/23 03:41:51;;;;;;;28.13;16.50;;;;;;;;;;5076139;28;20460;-65
2022/10/23 03:44:18;;;;;;;29.93;18.03;;;;;;;;;;5075825;28;20440;-65
2022/10/23 03:46:46;;;;;;;30.03;19.00;;;;;;;;;;5075659;28;20449;-65
2022/10/23 03:49:13;;;;;;;33.97;20.20;;;;;;;;;;5075511;28;20441;-66
2022/10/23 03:51:40;;;;;;;29.13;18.20;;;;;;;;;;5075246;28;20444;-66
2022/10/23 03:54:08;;;;;;;25.33;17.80;;;;;;;;;;5075387;28;20445;-65
2022/10/23 03:56:35;;;;;;;21.20;13.90;;;;;;;;;;5075431;28;20797;-65
2022/10/23 03:59:03;;;;;;;25.00;14.77;;;;;;;;;;5075655;28;20449;-66
2022/10/23 04:01:30;;;;;;;16.53;13.67;;;;;;;;;;5074159;28;20440;-65
2022/10/23 04:03:58;;;;;;;17.30;12.63;;;;;;;;;;5074887;28;21013;-65
2022/10/23 04:06:25;;;;;;;17.80;12.50;;;;;;;;;;5075320;28;20926;-65
2022/10/23 04:08:52;;;;;;;22.80;15.23;;;;;;;;;;5075460;28;20812;-66
2022/10/23 04:11:19;;;;;;;23.40;15.73;;;;;;;;;;5075225;28;20442;-66
2022/10/23 04:13:46;;;;;;;24.87;15.33;;;;;;;;;;5074981;28;20440;-65
2022/10/23 04:16:15;;;;;;;22.57;15.87;;;;;;;;;;5074890;28;20443;-65
2022/10/23 04:18:42;;;;;;;24.90;15.97;;;;;;;;;;5073852;28;21015;-65
2022/10/23 04:21:09;;;;;;;24.73;16.00;;;;;;;;;;5074717;28;20798;-65
2022/10/23 04:23:37;;;;;;;22.77;15.73;;;;;;;;;;5074644;28;20525;-66
2022/10/23 04:26:04;;;;;;;20.87;14.37;;;;;;;;;;5074384;28;20473;-65
2022/10/23 04:28:31;;;;;;;24.80;14.40;;;;;;;;;;5074699;28;20440;-65
2022/10/23 04:30:58;;;;;;;16.13;13.17;;;;;;;;;;5074605;28;20446;-65
2022/10/23 04:33:27;;;;;;;22.43;16.40;;;;;;;;;;5075230;28;20454;-65
2022/10/23 04:35:54;;;;;;;18.60;14.57;;;;;;;;;;5074655;28;20454;-65
2022/10/23 04:38:22;;;;;;;23.47;15.40;;;;;;;;;;5074439;28;20484;-65
2022/10/23 04:40:49;;;;;;;33.00;18.00;;;;;;;;;;5074573;28;20447;-65
2022/10/23 04:43:16;;;;;;;22.30;15.53;;;;;;;;;;5074514;28;20440;-65
2022/10/23 04:45:43;;;;;;;26.47;17.10;;;;;;;;;;5074003;28;20440;-65
2022/10/23 04:48:10;;;;;;;27.27;16.33;;;;;;;;;;5074067;28;20502;-65
2022/10/23 04:50:39;;;;;;;23.17;16.23;;;;;;;;;;5074125;28;20528;-65
2022/10/23 04:53:06;;;;;;;23.70;15.40;;;;;;;;;;5074539;28;20439;-65
2022/10/23 04:55:33;;;;;;;21.20;14.57;;;;;;;;;;5074280;28;20445;-65
2022/10/23 04:58:00;;;;;;;27.13;16.00;;;;;;;;;;5073882;28;20973;-65
2022/10/23 05:00:28;;;;;;;21.70;14.70;;;;;;;;;;5074114;28;20930;-65
2022/10/23 05:02:55;;;;;;;23.10;13.33;;;;;;;;;;5074396;28;20444;-65
2022/10/23 05:05:22;;;;;;;17.17;13.23;;;;;;;;;;5074028;28;20450;-65
2022/10/23 05:07:51;;;;;;;19.40;13.20;;;;;;;;;;5073992;28;20448;-65
2022/10/23 05:10:18;;;;;;;22.63;13.33;;;;;;;;;;5073492;28;20447;-65
2022/10/23 05:12:45;;;;;;;25.40;15.13;;;;;;;;;;5074459;28;20527;-65
2022/10/23 05:15:12;;;;;;;23.60;15.80;;;;;;;;;;5073528;28;20444;-65
2022/10/23 05:17:42;;;;;;;28.87;15.97;;;;;;;;;;5073686;28;20481;-65
2022/10/23 05:20:12;;;;;;;22.00;13.63;;;;;;;;;;5073767;28;20446;-65
2022/10/23 05:22:40;;;;;;;17.83;14.47;;;;;;;;;;5073580;28;20464;-65
2022/10/23 05:25:10;;;;;;;21.40;13.00;;;;;;;;;;5073679;28;20476;-65
2022/10/23 05:27:37;;;;;;;24.53;13.30;;;;;;;;;;5073415;28;20448;-65
2022/10/23 05:30:05;;;;;;;23.50;14.47;;;;;;;;;;5073163;28;20438;-65
2022/10/23 05:32:32;;;;;;;19.43;13.87;;;;;;;;;;5073498;28;20945;-65
2022/10/23 05:35:01;;;;;;;24.57;15.17;;;;;;;;;;5073399;28;20459;-65
2022/10/23 05:37:28;;;;;;;22.10;16.80;;;;;;;;;;5074035;28;20837;-65
2022/10/23 05:39:55;;;;;;;26.50;15.13;;;;;;;;;;5073203;28;20947;-65
2022/10/23 05:42:24;;;;;;;21.83;15.67;;;;;;;;;;5073590;28;20451;-65
2022/10/23 05:44:51;;;;;;;27.40;17.23;;;;;;;;;;5074129;28;20440;-65
2022/10/23 05:47:18;;;;;;;25.20;16.90;;;;;;;;;;5073135;28;20445;-65
2022/10/23 05:49:45;;;;;;;28.33;16.37;;;;;;;;;;5073133;28;20937;-66
2022/10/23 05:52:13;;;;;;;21.83;16.03;;;;;;;;;;5073450;28;20446;-68
2022/10/23 05:54:40;;;;;;;19.80;13.77;;;;;;;;;;5073422;28;20441;-66
2022/10/23 05:57:07;;;;;;;21.47;13.13;;;;;;;;;;5072975;28;20440;-66
2022/10/23 05:59:35;;;;;;;17.83;13.40;;;;;;;;;;5073124;28;20452;-66
2022/10/23 06:02:03;;;;;;;16.50;12.13;;;;;;;;;;5073288;28;20445;-66
2022/10/23 06:04:30;;;;;;;21.13;13.20;;;;;;;;;;5073223;28;20445;-66
2022/10/23 06:06:57;;;;;;;16.43;14.73;;;;;;;;;;5072886;28;20449;-66
2022/10/23 06:09:24;;;;;;;20.30;12.97;;;;;;;;;;5072948;28;20455;-65
2022/10/23 06:11:51;;;;;;;15.90;13.10;;;;;;;;;;5073253;28;20454;-66
2022/10/23 06:14:18;;;;;;;16.50;12.73;;;;;;;;;;5073264;28;20448;-65
2022/10/23 06:16:47;;;;;;;18.20;12.73;;;;;;;;;;5072882;28;20934;-65
2022/10/23 06:19:14;;;;;;;15.60;12.90;;;;;;;;;;5073193;28;20484;-66
2022/10/23 06:21:41;;;;;;;16.37;14.00;;;;;;;;;;5073398;28;20451;-65
2022/10/23 06:24:09;;;;;;;25.13;14.93;;;;;;;;;;5074040;28;20445;-65
2022/10/23 06:26:36;;;;;;;21.03;14.63;;;;;;;;;;5076809;28;20435;-66
2022/10/23 06:29:03;;;;;;;21.97;15.60;;;;;;;;;;5077142;28;20956;-65
2022/10/23 06:31:30;;;;;;;23.97;16.30;;;;;;;;;;5076612;28;20930;-66
2022/10/23 06:33:59;;;;;;;23.90;15.00;;;;;;;;;;5076931;28;20938;-66
2022/10/23 06:36:27;;;;;;;25.53;14.27;;;;;;;;;;5077754;28;20471;-66
2022/10/23 06:38:55;;;;;;;19.20;13.70;;;;;;;;;;5077275;28;20478;-66
2022/10/23 06:41:23;;;;;;;28.13;15.53;;;;;;;;;;5077188;28;20449;-65
2022/10/23 06:43:51;;;;;;;29.63;15.00;;;;;;;;;;5076030;28;20786;-66
2022/10/23 06:46:18;;;;;;;23.23;13.27;;;;;;;;;;5076896;28;20440;-66
2022/10/23 06:48:45;;;;;;;26.40;14.73;;;;;;;;;;5077289;28;20447;-65
2022/10/23 06:51:16;;;;;;;15.47;13.10;;;;;;;;;;5076301;28;20445;-66
2022/10/23 06:53:44;;;;;;;17.43;12.83;;;;;;;;;;5077007;28;20444;-66
2022/10/23 06:56:11;;;;;;;22.23;13.50;;;;;;;;;;5076174;28;20446;-66
2022/10/23 06:58:39;;;;;;;16.63;11.87;;;;;;;;;;5076446;28;20474;-65
2022/10/23 07:01:07;;;;;;;13.57;11.23;;;;;;;;;;5076012;28;20484;-66
2022/10/23 07:03:35;;;;;;;17.60;12.80;;;;;;;;;;5076317;28;20467;-66
2022/10/23 07:06:02;;;;;;;17.50;12.37;;;;;;;;;;5075979;28;20448;-66
2022/10/23 07:08:31;;;;;;;12.97;11.60;;;;;;;;;;5076465;28;20449;-66
2022/10/23 07:10:58;;;;;;;18.10;12.93;;;;;;;;;;5076232;28;20434;-66
2022/10/23 07:13:25;;;;;;;17.77;11.73;;;;;;;;;;5075835;28;20440;-66
2022/10/23 07:15:52;;;;;;;16.90;12.80;;;;;;;;;;5076069;28;20938;-66
2022/10/23 07:18:20;;;;;;;17.47;12.70;;;;;;;;;;5076030;28;20853;-66
2022/10/23 07:20:48;;;;;;;17.70;12.50;;;;;;;;;;5076081;28;20444;-65
2022/10/23 07:23:15;;;;;;;13.67;12.30;;;;;;;;;;5075100;28;20517;-66
2022/10/23 07:25:44;;;;;;;14.03;12.03;;;;;;;;;;5075943;28;20515;-66
2022/10/23 07:28:11;;;;;;;15.80;11.50;;;;;;;;;;5075564;28;20448;-65
2022/10/23 07:30:39;;;;;;;16.20;12.33;;;;;;;;;;5075396;28;20443;-66
2022/10/23 07:33:07;;;;;;;14.13;12.00;;;;;;;;;;5075597;28;20942;-65
2022/10/23 07:35:34;;;;;;;19.10;11.60;;;;;;;;;;5074203;28;20454;-65
2022/10/23 07:38:01;;;;;;;12.60;10.90;;;;;;;;;;5075293;28;20484;-66
2022/10/23 07:40:28;;;;;;;16.67;11.33;;;;;;;;;;5075461;28;20449;-64
2022/10/23 07:42:57;;;;;;;13.67;10.20;;;;;;;;;;5075503;28;20534;-65
2022/10/23 07:45:24;;;;;;;14.10;11.57;;;;;;;;;;5075551;28;20535;-66
2022/10/23 07:47:52;;;;;;;16.63;11.40;;;;;;;;;;5075612;28;20467;-66
2022/10/23 07:50:19;;;;;;;12.10;10.27;;;;;;;;;;5075274;28;20485;-66
2022/10/23 07:52:46;;;;;;;12.63;11.10;;;;;;;;;;5075163;28;20448;-65
2022/10/23 07:55:13;;;;;;;12.23;10.80;;;;;;;;;;5075165;28;20457;-66
2022/10/23 07:57:40;;;;;;;14.70;11.93;;;;;;;;;;5075547;28;20527;-65
2022/10/23 08:00:10;;;;;;;12.90;10.77;;;;;;;;;;5075268;28;20473;-67
2022/10/23 08:02:38;;;;;;;14.00;9.97;;;;;;;;;;5074950;28;20531;-66
2022/10/23 08:05:05;;;;;;;11.30;10.10;;;;;;;;;;5075080;28;20451;-67
2022/10/23 08:07:32;;;;;;;18.03;10.27;;;;;;;;;;5075232;28;20438;-67
2022/10/23 08:09:59;;;;;;;12.90;9.90;;;;;;;;;;5074884;28;20947;-67
2022/10/23 08:12:27;;;;;;;17.77;9.27;;;;;;;;;;5074757;28;20436;-67
2022/10/23 08:14:54;;;;;;;13.37;9.80;;;;;;;;;;5075420;28;20798;-66
2022/10/23 08:17:23;;;;;;;13.70;9.50;;;;;;;;;;5074676;28;20460;-67
2022/10/23 08:19:50;;;;;;;11.40;10.27;;;;;;;;;;5075086;28;20481;-66
2022/10/23 08:22:17;;;;;;;12.30;9.53;;;;;;;;;;5075038;28;20444;-66
2022/10/23 08:24:44;;;;;;;14.90;9.83;;;;;;;;;;5074930;28;20818;-66
2022/10/23 08:27:11;;;;;;;12.70;8.73;;;;;;;;;;5074902;28;20537;-67
2022/10/23 08:29:38;;;;;;;11.23;9.83;;;;;;;;;;5074859;28;20447;-66
2022/10/23 08:32:06;;;;;;;12.87;9.67;;;;;;;;;;5074638;28;20439;-67
2022/10/23 08:34:36;;;;;;;16.20;10.20;;;;;;;;;;5074586;28;20795;-66
2022/10/23 08:37:04;;;;;;;13.13;9.37;;;;;;;;;;5074807;28;20446;-66
2022/10/23 08:39:31;;;;;;;19.33;10.13;;;;;;;;;;5074525;28;20481;-66
2022/10/23 08:41:58;;;;;;;13.43;10.30;;;;;;;;;;5074279;28;20457;-66
2022/10/23 08:44:27;;;;;;;21.63;11.10;;;;;;;;;;5074081;28;20459;-66
2022/10/23 08:47:01;;;;;;;10.80;9.50;;;;;;;;;;5074166;28;20450;-66
2022/10/23 08:49:36;;;;;;;10.57;8.63;;;;;;;;;;5074356;28;20532;-66
2022/10/23 08:52:08;;;;;;;11.10;10.00;;;;;;;;;;5074823;28;20444;-66
2022/10/23 08:54:39;;;;;;;10.57;8.87;;;;;;;;;;5074137;28;20943;-66
2022/10/23 08:57:11;;;;;;;31.83;8.47;;;;;;;;;;5074477;28;20438;-66
2022/10/23 08:59:40;;;;;;;12.87;8.93;;;;;;;;;;5074289;28;20833;-65
2022/10/23 09:02:11;;;;;;;11.30;9.40;;;;;;;;;;5074130;28;20439;-66
2022/10/23 09:04:38;;;;;;;8.73;7.83;;;;;;;;;;5073705;28;20939;-67
2022/10/23 09:07:13;;;;;;;13.90;8.77;;;;;;;;;;5074095;28;20443;-66
2022/10/23 09:09:49;;;;;;;11.60;8.60;;;;;;;;;;5074026;28;20457;-66
2022/10/23 09:12:18;;;;;;;14.10;8.40;;;;;;;;;;5073785;28;20432;-66
2022/10/23 09:15:06;;;;;;;11.03;8.47;;;;;;;;;;5073843;28;20454;-66
2022/10/23 09:17:34;;;;;;;9.50;7.70;;;;;;;;;;5070059;28;20466;-67
2022/10/23 09:20:06;;;;;;;7.80;7.10;;;;;;;;;;5073953;28;20548;-66
2022/10/23 09:22:35;;;;;;;11.20;7.63;;;;;;;;;;5073813;28;20430;-66
2022/10/23 09:25:02;;;;;;;11.17;8.30;;;;;;;;;;5073592;28;20959;-66
2022/10/23 09:27:29;;;;;;;10.00;7.20;;;;;;;;;;5072904;28;20447;-66
2022/10/23 09:29:58;;;;;;;13.20;7.37;;;;;;;;;;5073544;28;20545;-66
2022/10/23 09:32:35;;;;;;;9.33;6.37;;;;;;;;;;5073350;28;20450;-65
2022/10/23 09:35:02;;;;;;;9.67;6.70;;;;;;;;;;5073321;28;20445;-65
2022/10/23 09:37:30;;;;;;;8.70;6.50;;;;;;;;;;5074238;28;20442;-66
2022/10/23 09:40:04;;;;;;;13.23;6.93;;;;;;;;;;5073505;28;20830;-66
2022/10/23 09:42:31;;;;;;;8.43;6.00;;;;;;;;;;5073490;28;20500;-66
2022/10/23 09:44:58;;;;;;;7.27;6.40;;;;;;;;;;5073552;28;20945;-66
2022/10/23 09:47:27;;;;;;;11.80;6.70;;;;;;;;;;5073804;28;20439;-66
2022/10/23 09:49:55;;;;;;;7.37;6.27;;;;;;;;;;5073069;28;20483;-66
2022/10/23 09:52:24;;;;;;;6.70;6.00;;;;;;;;;;5073134;28;20452;-66
2022/10/23 09:54:52;;;;;;;8.33;5.83;;;;;;;;;;5072867;28;20452;-66
2022/10/23 09:57:23;;;;;;;11.03;8.30;;;;;;;;;;5073501;28;20482;-66
2022/10/23 09:59:54;;;;;;;8.50;6.67;;;;;;;;;;5072608;28;20469;-66
2022/10/23 10:02:25;;;;;;;10.23;6.53;;;;;;;;;;5073389;28;20443;-66
2022/10/23 10:04:52;;;;;;;9.40;5.53;;;;;;;;;;5073463;28;20772;-66
2022/10/23 10:07:32;;;;;;;8.33;5.70;;;;;;;;;;5073594;28;20464;-66
2022/10/23 10:09:59;;;;;;;6.87;5.10;;;;;;;;;;5073256;28;20441;-67
2022/10/23 10:12:42;;;;;;;11.67;5.60;;;;;;;;;;5072571;28;20445;-66
2022/10/23 10:15:18;;;;;;;7.37;4.63;;;;;;;;;;5071063;28;20450;-66
2022/10/23 10:17:53;;;;;;;11.50;5.27;;;;;;;;;;5073014;28;20431;-67
2022/10/23 10:20:30;;;;;;;9.50;5.57;;;;;;;;;;5072947;28;20473;-67
2022/10/23 10:23:01;;;;;;;7.80;5.97;;;;;;;;;;5073349;28;20839;-67
2022/10/23 10:25:35;;;;;;;7.70;5.87;;;;;;;;;;5072382;28;20477;-66
2022/10/23 10:28:16;;;;;;;5.73;5.23;;;;;;;;;;5072628;28;20430;-66
2022/10/23 10:30:48;;;;;;;7.47;5.07;;;;;;;;;;5072275;28;20923;-66
2022/10/23 10:33:18;;;;;;;7.47;5.63;;;;;;;;;;5072909;28;20517;-66
2022/10/23 10:35:50;;;;;;;6.83;4.70;;;;;;;;;;5073101;28;20446;-66
2022/10/23 10:38:24;;;;;;;5.13;4.60;;;;;;;;;;5072956;28;20435;-66
2022/10/23 10:40:55;;;;;;;9.87;5.20;;;;;;;;;;5072789;28;20479;-66
2022/10/23 10:43:28;;;;;;;8.20;4.90;;;;;;;;;;5073207;28;20433;-66
2022/10/23 10:46:00;;;;;;;24.20;11.60;;;;;;;;;;5072964;28;20529;-69
2022/10/23 10:48:35;;;;;;;13.63;5.93;;;;;;;;;;5073183;28;20440;-67
2022/10/23 10:51:04;;;;;;;6.20;4.97;;;;;;;;;;5072988;28;20436;-67
2022/10/23 10:53:34;;;;;;;7.13;4.70;;;;;;;;;;5072755;28;20548;-67
2022/10/23 10:56:03;;;;;;;7.30;3.90;;;;;;;;;;5072478;28;20442;-68
2022/10/23 10:58:32;;;;;;;9.40;4.47;;;;;;;;;;5072688;28;20513;-68
2022/10/23 11:01:02;;;;;;;8.83;5.37;;;;;;;;;;5072211;28;20474;-68
2022/10/23 11:03:35;;;;;;;13.70;4.20;;;;;;;;;;5072504;28;20454;-68
2022/10/23 11:06:03;;;;;;;5.93;3.53;;;;;;;;;;5072882;28;20453;-68
2022/10/23 11:08:34;;;;;;;8.03;4.40;;;;;;;;;;5072695;28;20437;-68
2022/10/23 11:11:04;;;;;;;6.20;4.70;;;;;;;;;;5075090;28;20443;-67
2022/10/23 11:13:35;;;;;;;5.97;4.10;;;;;;;;;;5076574;28;20929;-68
2022/10/23 11:16:05;;;;;;;8.57;6.67;;;;;;;;;;5075781;28;20963;-68
2022/10/23 11:18:33;;;;;;;10.63;4.60;;;;;;;;;;5075822;28;20453;-67
2022/10/23 11:21:07;;;;;;;6.37;4.10;;;;;;;;;;5075460;28;20476;-67
2022/10/23 11:23:49;;;;;;;5.47;3.90;;;;;;;;;;5075820;28;20435;-67
2022/10/23 11:26:24;;;;;;;7.17;4.80;;;;;;;;;;5074004;28;20993;-67
2022/10/23 11:28:57;;;;;;;21.00;9.73;;;;;;;;;;5075779;28;20430;-67
2022/10/23 11:31:29;;;;;;;10.93;4.67;;;;;;;;;;5076044;28;20436;-67
2022/10/23 11:34:20;;;;;;;18.97;4.80;;;;;;;;;;5076094;28;20431;-68
2022/10/23 11:36:49;;;;;;;7.33;5.20;;;;;;;;;;5075365;28;20945;-68
2022/10/23 11:39:19;;;;;;;7.30;6.13;;;;;;;;;;5075795;28;20439;-68
2022/10/23 11:41:50;;;;;;;10.73;4.80;;;;;;;;;;5075701;28;20453;-68
2022/10/23 11:44:41;;;;;;;9.97;3.33;;;;;;;;;;5075762;28;20504;-68
2022/10/23 11:47:23;;;;;;;6.90;2.90;;;;;;;;;;5060555;28;20816;-68
2022/10/23 11:49:52;;;;;;;2.63;2.43;;;;;;;;;;5075187;28;20465;-68
2022/10/23 11:52:23;;;;;;;3.77;3.20;;;;;;;;;;5075579;28;20520;-68
2022/10/23 11:55:01;;;;;;;8.80;3.93;;;;;;;;;;5075883;28;20448;-68
2022/10/23 11:57:28;;;;;;;13.03;3.30;;;;;;;;;;5075940;28;20446;-68
2022/10/23 11:59:56;;;;;;;6.70;3.07;;;;;;;;;;5074924;28;20524;-68
2022/10/23 12:02:30;;;;;;;2.93;2.63;;;;;;;;;;5075464;28;20445;-68
2022/10/23 12:05:00;;;;;;;7.13;3.70;;;;;;;;;;5075310;28;20451;-67
2022/10/23 12:07:28;;;;;;;4.83;3.40;;;;;;;;;;5075061;28;20526;-68
2022/10/23 12:09:57;;;;;;;6.73;2.87;;;;;;;;;;5074885;28;20457;-68
2022/10/23 12:12:28;;;;;;;11.00;3.60;;;;;;;;;;5075147;28;20568;-67
2022/10/23 12:15:07;;;;;;;5.27;2.83;;;;;;;;;;5074783;28;20455;-67
2022/10/23 12:17:36;;;;;;;7.83;3.20;;;;;;;;;;5074819;28;20436;-66
2022/10/23 12:20:19;;;;;;;5.43;3.10;;;;;;;;;;5074855;28;20482;-66
2022/10/23 12:22:51;;;;;;;3.67;3.27;;;;;;;;;;5071869;28;20510;-66
2022/10/23 12:25:24;;;;;;;3.23;2.97;;;;;;;;;;5074296;28;20472;-67
2022/10/23 12:27:53;;;;;;;12.70;2.80;;;;;;;;;;5074679;28;20931;-65
2022/10/23 12:30:22;;;;;;;4.10;2.50;;;;;;;;;;5074677;28;20440;-66
2022/10/23 12:33:07;;;;;;;4.43;3.20;;;;;;;;;;5074430;28;20453;-66
2022/10/23 12:35:47;;;;;;;4.63;3.20;;;;;;;;;;5075101;28;20448;-66
2022/10/23 12:38:18;;;;;;;6.03;3.00;;;;;;;;;;5074430;28;20917;-65
2022/10/23 12:40:46;;;;;;;4.97;3.33;;;;;;;;;;5073581;28;20529;-66
2022/10/23 12:43:27;;;;;;;6.97;3.57;;;;;;;;;;5073830;28;20480;-66
2022/10/23 12:45:55;;;;;;;7.87;3.60;;;;;;;;;;5074308;28;20467;-66
2022/10/23 12:48:23;;;;;;;5.40;3.30;;;;;;;;;;5074187;28;20775;-66
2022/10/23 12:50:51;;;;;;;3.77;3.00;;;;;;;;;;5075006;28;20447;-66
2022/10/23 12:53:21;;;;;;;4.13;3.20;;;;;;;;;;5074827;28;20452;-66
2022/10/23 12:55:50;;;;;;;6.27;3.30;;;;;;;;;;5074212;28;20447;-67
2022/10/23 12:58:20;;;;;;;5.17;2.87;;;;;;;;;;5074281;28;20443;-66
2022/10/23 13:00:51;;;;;;;10.20;3.90;;;;;;;;;;5073382;28;21022;-66
2022/10/23 13:03:21;;;;;;;4.87;2.43;;;;;;;;;;5074111;28;20455;-66
2022/10/23 13:05:48;;;;;;;4.27;2.93;;;;;;;;;;5073927;28;20446;-67
2022/10/23 13:08:15;;;;;;;12.67;3.60;;;;;;;;;;5073578;28;20453;-67
2022/10/23 13:10:44;;;;;;;7.83;2.87;;;;;;;;;;5073593;28;20938;-66
2022/10/23 13:13:12;;;;;;;3.23;2.93;;;;;;;;;;5074309;28;20447;-66
2022/10/23 13:15:41;;;;;;;3.37;2.43;;;;;;;;;;5073826;28;20451;-66
2022/10/23 13:18:08;;;;;;;4.70;3.13;;;;;;;;;;5073765;28;20447;-66
2022/10/23 13:20:36;;;;;;;3.67;2.77;;;;;;;;;;5073627;28;20472;-66
2022/10/23 13:23:10;;;;;;;5.90;3.03;;;;;;;;;;5072916;28;20936;-66
2022/10/23 13:25:38;;;;;;;7.00;3.03;;;;;;;;;;5073394;28;20475;-67
2022/10/23 13:28:13;;;;;;;7.40;3.27;;;;;;;;;;5073603;28;20542;-66
2022/10/23 13:30:41;;;;;;;11.23;3.10;;;;;;;;;;5073499;28;20510;-66
2022/10/23 13:33:14;;;;;;;4.70;3.23;;;;;;;;;;5073000;28;20476;-65
2022/10/23 13:35:42;;;;;;;4.93;2.73;;;;;;;;;;5073072;28;20449;-66
2022/10/23 13:38:10;;;;;;;5.50;3.10;;;;;;;;;;5073561;28;20447;-66
2022/10/23 13:40:37;;;;;;;3.33;2.97;;;;;;;;;;5072901;28;20476;-66
2022/10/23 13:43:14;;;;;;;15.33;8.90;;;;;;;;;;5072980;28;20447;-66
2022/10/23 13:45:41;;;;;;;8.97;3.60;;;;;;;;;;5073241;28;20436;-66
2022/10/23 13:48:13;;;;;;;4.57;3.10;;;;;;;;;;5073318;28;20441;-66
2022/10/23 13:50:40;;;;;;;4.37;3.57;;;;;;;;;;5073380;28;20785;-66
2022/10/23 13:53:09;;;;;;;7.93;2.50;;;;;;;;;;5073045;28;20531;-66
2022/10/23 13:55:37;;;;;;;5.73;3.13;;;;;;;;;;5073042;28;20444;-66
2022/10/23 13:58:04;;;;;;;5.30;2.70;;;;;;;;;;5072983;28;20968;-66
2022/10/23 14:00:32;;;;;;;5.87;3.00;;;;;;;;;;5073474;28;20468;-66
2022/10/23 14:03:00;;;;;;;3.33;2.53;;;;;;;;;;5073281;28;20939;-66
2022/10/23 14:05:27;;;;;;;4.07;2.50;;;;;;;;;;5072931;28;20482;-66
2022/10/23 14:07:54;;;;;;;5.67;2.43;;;;;;;;;;5072545;28;20467;-67
2022/10/23 14:10:22;;;;;;;4.63;2.60;;;;;;;;;;5072603;28;20448;-66
2022/10/23 14:12:52;;;;;;;2.83;2.40;;;;;;;;;;5073079;28;20858;-67
2022/10/23 14:15:19;;;;;;;7.50;2.57;;;;;;;;;;5072838;28;20429;-66
2022/10/23 14:17:48;;;;;;;8.60;4.33;;;;;;;;;;5073144;28;20440;-66
2022/10/23 14:20:15;;;;;;;4.30;2.43;;;;;;;;;;5073107;28;20476;-66
2022/10/23 14:22:42;;;;;;;7.50;2.60;;;;;;;;;;5073073;28;20527;-66
2022/10/23 14:25:10;;;;;;;4.40;2.47;;;;;;;;;;5073317;28;20500;-66
2022/10/23 14:27:37;;;;;;;2.17;1.97;;;;;;;;;;5072555;28;20882;-66
2022/10/23 14:30:05;;;;;;;3.97;2.10;;;;;;;;;;5072514;28;20947;-66
2022/10/23 14:32:32;;;;;;;2.90;2.37;;;;;;;;;;5072515;28;20451;-66
2022/10/23 14:35:02;;;;;;;2.90;1.93;;;;;;;;;;5072623;28;20455;-65
2022/10/23 14:37:30;;;;;;;5.83;2.30;;;;;;;;;;5073282;28;20425;-66
2022/10/23 14:39:57;;;;;;;3.40;2.10;;;;;;;;;;5072715;28;20849;-66